Time;durP1;ratioP1;P1;durP2;ratioP2;P2;SDS_P1;SDS_P2;PMS_P1;PMS_P2;Temp;Humidity;BMP_temperature;BMP_pressure;BME280_temperature;BME280_humidity;BME280_pressure;Samples;Min_cycle;Max_cycle;Signal;HPM_P1;HPM_P2
2022/03/13 00:02:02;;;;;;;15.75;7.57;;;-0.70;46.90;;;;;;5057037;28;20067;-56
2022/03/13 00:04:28;;;;;;;8.85;6.63;;;-0.70;47.10;;;;;;5052174;28;20025;-57
2022/03/13 00:06:56;;;;;;;10.15;6.65;;;-0.70;46.40;;;;;;5051857;28;20036;-57
2022/03/13 00:09:22;;;;;;;15.10;7.55;;;-0.60;46.60;;;;;;5051851;28;20035;-58
2022/03/13 00:11:54;;;;;;;9.57;6.68;;;-0.70;46.30;;;;;;5064527;28;20044;-58
2022/03/13 00:14:24;;;;;;;9.90;6.50;;;-0.70;45.30;;;;;;5071899;28;20045;-56
2022/03/13 00:16:50;;;;;;;8.00;6.95;;;-0.60;45.40;;;;;;5071802;28;20078;-56
2022/03/13 00:19:17;;;;;;;13.80;7.65;;;-0.60;46.70;;;;;;5071653;28;20116;-59
2022/03/13 00:21:50;;;;;;;12.02;8.15;;;-0.60;46.80;;;;;;5059622;28;20053;-57
2022/03/13 00:24:20;;;;;;;28.85;13.30;;;-0.70;46.60;;;;;;5052016;28;20013;-58
2022/03/13 00:26:47;;;;;;;15.45;9.18;;;-0.80;46.90;;;;;;5051763;28;20399;-58
2022/03/13 00:29:12;;;;;;;19.52;9.80;;;-0.80;47.20;;;;;;5051935;28;20044;-59
2022/03/13 00:31:38;;;;;;;16.52;9.38;;;-0.80;45.50;;;;;;5062380;28;20036;-58
2022/03/13 00:34:04;;;;;;;20.25;9.32;;;-0.70;45.00;;;;;;5071160;28;20040;-59
2022/03/13 00:36:31;;;;;;;11.98;8.43;;;-0.80;44.80;;;;;;5071138;28;20028;-55
2022/03/13 00:38:57;;;;;;;14.73;8.77;;;-0.80;45.70;;;;;;5071337;28;20112;-58
2022/03/13 00:41:23;;;;;;;11.02;8.77;;;-0.80;45.10;;;;;;5062379;28;20043;-57
2022/03/13 00:43:48;;;;;;;11.52;8.40;;;-0.70;45.10;;;;;;5058931;28;20033;-56
2022/03/13 00:46:14;;;;;;;11.98;8.57;;;-0.80;44.40;;;;;;5071488;28;20032;-58
2022/03/13 00:48:41;;;;;;;12.75;8.27;;;-0.70;44.10;;;;;;5071141;28;20024;-59
2022/03/13 00:51:07;;;;;;;16.65;7.97;;;-0.70;43.70;;;;;;5071495;28;20017;-57
2022/03/13 00:53:32;;;;;;;10.45;8.10;;;-0.60;44.00;;;;;;5066511;28;20403;-58
2022/03/13 00:55:58;;;;;;;15.60;8.88;;;-0.70;44.40;;;;;;5051348;28;20029;-57
2022/03/13 00:58:23;;;;;;;11.80;7.78;;;-0.70;44.70;;;;;;5050956;28;20121;-59
2022/03/13 01:00:49;;;;;;;12.88;8.18;;;-0.70;45.10;;;;;;5051107;28;20107;-57
2022/03/13 01:03:47;;;;;;;12.73;8.45;;;-0.80;45.40;;;;;;5051203;28;20033;-58
2022/03/13 01:06:13;;;;;;;9.57;7.22;;;-0.90;45.80;;;;;;5051311;28;20380;-58
2022/03/13 01:08:40;;;;;;;11.57;8.50;;;-0.90;47.00;;;;;;5051192;28;20025;-57
2022/03/13 01:11:06;;;;;;;13.00;7.53;;;-1.00;46.30;;;;;;5051348;28;20110;-58
2022/03/13 01:13:34;;;;;;;11.73;7.65;;;-1.10;48.40;;;;;;5055040;28;20056;-57
2022/03/13 01:16:12;;;;;;;14.10;8.48;;;-1.20;47.90;;;;;;5060289;28;20021;-57
2022/03/13 01:18:55;;;;;;;12.85;9.10;;;-1.30;48.60;;;;;;5051011;28;20024;-57
2022/03/13 01:21:22;;;;;;;11.45;8.43;;;-1.40;48.70;;;;;;5051144;28;20055;-59
2022/03/13 01:24:16;;;;;;;10.52;7.45;;;-1.40;50.50;;;;;;5050839;28;20033;-58
2022/03/13 01:26:42;;;;;;;11.63;7.43;;;-1.50;51.80;;;;;;5066319;28;20033;-59
2022/03/13 01:29:13;;;;;;;12.00;7.45;;;-1.60;52.30;;;;;;5070889;28;20115;-56
2022/03/13 01:31:43;;;;;;;22.30;8.07;;;-1.70;52.20;;;;;;5073696;28;20024;-59
2022/03/13 01:34:12;;;;;;;12.10;7.97;;;-1.70;51.50;;;;;;5073938;28;20702;-59
2022/03/13 01:36:38;;;;;;;15.13;8.48;;;-1.80;50.10;;;;;;5057965;28;20033;-57
2022/03/13 01:39:06;;;;;;;16.95;7.95;;;-1.70;49.80;;;;;;5053475;28;20029;-58
2022/03/13 01:41:34;;;;;;;11.00;8.10;;;-1.70;50.70;;;;;;5054255;28;20028;-55
2022/03/13 01:44:00;;;;;;;14.63;8.32;;;-1.70;50.20;;;;;;5060343;28;20439;-54
2022/03/13 01:46:27;;;;;;;11.27;8.60;;;-1.70;50.30;;;;;;5073741;28;20017;-56
2022/03/13 01:49:01;;;;;;;14.65;8.30;;;-1.70;50.60;;;;;;5073929;28;20028;-57
2022/03/13 01:51:27;;;;;;;12.40;8.35;;;-1.70;50.70;;;;;;5074417;28;20029;-58
2022/03/13 01:53:55;;;;;;;15.07;7.80;;;-1.80;50.20;;;;;;5069108;28;20096;-58
2022/03/13 01:56:21;;;;;;;10.48;8.13;;;-1.90;50.50;;;;;;5054576;28;20044;-57
2022/03/13 01:58:54;;;;;;;14.60;8.27;;;-2.00;51.60;;;;;;5054259;28;20033;-57
2022/03/13 02:01:21;;;;;;;11.88;8.00;;;-2.20;52.30;;;;;;5055007;28;20029;-58
2022/03/13 02:03:48;;;;;;;11.93;8.30;;;-2.20;52.90;;;;;;5074067;28;20035;-58
2022/03/13 02:06:15;;;;;;;10.43;8.50;;;-2.20;52.70;;;;;;5073126;28;20452;-59
2022/03/13 02:08:41;;;;;;;11.40;8.32;;;-2.20;52.40;;;;;;5074186;28;20051;-56
2022/03/13 02:11:08;;;;;;;16.40;7.90;;;-2.10;51.20;;;;;;5074209;28;20472;-58
2022/03/13 02:13:34;;;;;;;10.23;8.00;;;-2.10;51.10;;;;;;5055856;28;20072;-56
2022/03/13 02:16:01;;;;;;;11.88;7.55;;;-2.10;51.00;;;;;;5054130;28;20500;-57
2022/03/13 02:18:27;;;;;;;9.75;7.40;;;-2.00;50.50;;;;;;5052779;28;20514;-55
2022/03/13 02:20:53;;;;;;;19.85;8.02;;;-2.00;50.40;;;;;;5054182;28;20455;-58
2022/03/13 02:23:23;;;;;;;12.30;8.70;;;-1.90;50.40;;;;;;5068455;28;20036;-57
2022/03/13 02:25:57;;;;;;;14.93;8.77;;;-2.00;51.20;;;;;;5073998;28;20028;-57
2022/03/13 02:28:25;;;;;;;11.57;8.18;;;-1.90;51.80;;;;;;5073528;28;20151;-59
2022/03/13 02:30:55;;;;;;;11.93;8.20;;;-2.00;52.30;;;;;;5072068;28;20042;-57
2022/03/13 02:33:21;;;;;;;13.50;8.40;;;-2.00;50.80;;;;;;5073646;28;20021;-58
2022/03/13 02:35:56;;;;;;;17.42;8.63;;;-2.00;51.10;;;;;;5072397;28;20543;-57
2022/03/13 02:38:23;;;;;;;15.57;9.00;;;-2.10;51.30;;;;;;5072585;28;20507;-58
2022/03/13 02:40:48;;;;;;;15.23;8.65;;;-2.10;51.60;;;;;;5060651;28;20032;-56
2022/03/13 02:43:15;;;;;;;18.77;8.60;;;-2.10;51.30;;;;;;5053416;28;20044;-56
2022/03/13 02:45:41;;;;;;;13.10;9.10;;;-2.10;50.90;;;;;;5053353;28;20037;-57
2022/03/13 02:48:09;;;;;;;12.52;8.18;;;-2.10;51.10;;;;;;5053627;28;20043;-57
2022/03/13 02:50:36;;;;;;;10.98;8.85;;;-2.00;50.60;;;;;;5063491;28;20417;-58
2022/03/13 02:53:02;;;;;;;11.80;8.90;;;-2.10;51.60;;;;;;5073758;28;20024;-59
2022/03/13 02:55:28;;;;;;;12.50;8.65;;;-2.10;51.50;;;;;;5073623;28;20103;-58
2022/03/13 02:57:54;;;;;;;13.10;8.57;;;-2.10;50.30;;;;;;5073185;28;20071;-58
2022/03/13 03:00:21;;;;;;;13.02;9.05;;;-2.00;50.50;;;;;;5065077;28;20056;-58
2022/03/13 03:02:48;;;;;;;13.77;9.07;;;-2.10;51.60;;;;;;5053120;28;20029;-55
2022/03/13 03:05:14;;;;;;;12.43;8.40;;;-2.10;50.80;;;;;;5053232;28;20372;-56
2022/03/13 03:07:40;;;;;;;16.33;8.38;;;-2.20;51.60;;;;;;5053165;28;20029;-58
2022/03/13 03:10:12;;;;;;;14.60;9.15;;;-2.20;53.40;;;;;;5058801;28;20039;-54
2022/03/13 03:12:39;;;;;;;13.63;8.77;;;-2.30;54.10;;;;;;5072663;28;20028;-56
2022/03/13 03:15:05;;;;;;;14.13;9.23;;;-2.40;54.50;;;;;;5073171;28;20379;-56
2022/03/13 03:17:31;;;;;;;13.30;9.00;;;-2.40;56.10;;;;;;5073244;28;20033;-57
2022/03/13 03:19:56;;;;;;;17.55;8.88;;;-2.40;55.50;;;;;;5068655;28;20025;-59
2022/03/13 03:22:22;;;;;;;13.90;8.68;;;-2.60;57.00;;;;;;5053262;28;20044;-58
2022/03/13 03:24:48;;;;;;;16.45;11.27;;;-2.50;56.60;;;;;;5053178;28;20402;-57
2022/03/13 03:27:17;;;;;;;14.65;9.45;;;-2.50;54.10;;;;;;5052945;28;20133;-58
2022/03/13 03:29:43;;;;;;;12.82;9.63;;;-2.50;52.70;;;;;;5054690;28;20100;-58
2022/03/13 03:32:08;;;;;;;16.20;9.50;;;-2.40;53.30;;;;;;5072581;28;20467;-56
2022/03/13 03:34:34;;;;;;;13.20;9.18;;;-2.50;55.00;;;;;;5072620;28;20020;-58
2022/03/13 03:37:01;;;;;;;14.40;8.93;;;-2.60;55.20;;;;;;5072610;28;20460;-60
2022/03/13 03:39:30;;;;;;;15.68;10.00;;;-2.70;56.40;;;;;;5071382;28;20024;-57
2022/03/13 03:41:56;;;;;;;12.52;9.10;;;-2.70;55.70;;;;;;5052469;28;20033;-57
2022/03/13 03:44:22;;;;;;;13.13;8.80;;;-2.70;56.70;;;;;;5052067;28;20071;-58
2022/03/13 03:46:49;;;;;;;14.20;10.32;;;-2.70;55.60;;;;;;5051170;28;20429;-58
2022/03/13 03:49:15;;;;;;;16.35;9.82;;;-2.70;56.50;;;;;;5051192;28;20036;-56
2022/03/13 03:51:43;;;;;;;15.30;9.85;;;-2.70;55.90;;;;;;5068810;28;20045;-55
2022/03/13 03:54:23;;;;;;;15.05;10.57;;;-2.60;55.10;;;;;;5070738;28;20052;-57
2022/03/13 03:56:49;;;;;;;19.00;10.07;;;-2.50;54.20;;;;;;5071355;28;20095;-58
2022/03/13 03:59:15;;;;;;;15.25;10.05;;;-2.50;54.20;;;;;;5071422;28;20052;-55
2022/03/13 04:01:43;;;;;;;13.10;9.48;;;-2.60;53.80;;;;;;5051303;28;20044;-56
2022/03/13 04:04:09;;;;;;;13.50;9.93;;;-2.60;53.80;;;;;;5050937;28;20034;-57
2022/03/13 04:06:40;;;;;;;17.98;10.35;;;-2.50;53.70;;;;;;5052140;28;20055;-54
2022/03/13 04:09:11;;;;;;;14.25;9.68;;;-2.60;53.90;;;;;;5052343;28;20043;-56
2022/03/13 04:11:37;;;;;;;26.45;10.00;;;-2.60;54.10;;;;;;5069034;28;20052;-55
2022/03/13 04:14:03;;;;;;;15.73;10.52;;;-2.60;53.50;;;;;;5072101;28;20396;-56
2022/03/13 04:16:29;;;;;;;18.38;10.27;;;-2.60;53.60;;;;;;5070458;28;20158;-52
2022/03/13 04:18:55;;;;;;;13.55;9.52;;;-2.60;53.80;;;;;;5071740;28;20487;-56
2022/03/13 04:21:22;;;;;;;13.98;9.90;;;-2.60;53.70;;;;;;5056780;28;20076;-57
2022/03/13 04:23:48;;;;;;;17.15;10.93;;;-2.60;53.60;;;;;;5051084;28;20052;-53
2022/03/13 04:26:14;;;;;;;18.55;10.45;;;-2.60;54.10;;;;;;5051269;28;20473;-58
2022/03/13 04:28:40;;;;;;;22.33;10.23;;;-2.60;54.50;;;;;;5051268;28;20031;-55
2022/03/13 04:31:08;;;;;;;23.80;10.60;;;-2.50;54.40;;;;;;5063538;28;20032;-53
2022/03/13 04:33:55;;;;;;;17.73;11.02;;;-2.50;54.20;;;;;;5069470;28;20019;-56
2022/03/13 04:36:33;;;;;;;18.98;11.65;;;-2.50;54.30;;;;;;5068463;28;20025;-57
2022/03/13 04:39:01;;;;;;;20.13;10.98;;;-2.50;54.40;;;;;;5068607;28;20689;-54
2022/03/13 04:41:28;;;;;;;15.88;10.23;;;-2.60;55.00;;;;;;5053303;28;20558;-57
2022/03/13 04:43:54;;;;;;;18.25;11.20;;;-2.60;53.80;;;;;;5048355;28;20009;-58
2022/03/13 04:46:20;;;;;;;18.73;9.93;;;-2.60;54.00;;;;;;5049814;28;20017;-58
2022/03/13 04:48:45;;;;;;;15.60;10.80;;;-2.60;54.60;;;;;;5050345;28;20467;-56
2022/03/13 04:51:11;;;;;;;17.40;10.57;;;-2.50;54.20;;;;;;5063170;28;20055;-55
2022/03/13 04:53:37;;;;;;;14.95;10.07;;;-2.50;54.70;;;;;;5070463;28;20020;-58
2022/03/13 04:56:04;;;;;;;11.73;9.02;;;-2.70;54.80;;;;;;5070619;28;20048;-58
2022/03/13 04:58:30;;;;;;;14.43;10.35;;;-2.70;54.80;;;;;;5070726;28;20021;-55
2022/03/13 05:00:56;;;;;;;16.50;11.50;;;-2.70;55.00;;;;;;5060008;28;20028;-56
2022/03/13 05:03:22;;;;;;;20.17;10.48;;;-2.70;55.10;;;;;;5050931;28;20056;-57
2022/03/13 05:05:48;;;;;;;19.58;10.55;;;-2.70;55.60;;;;;;5051135;28;20071;-56
2022/03/13 05:08:15;;;;;;;15.15;10.38;;;-2.80;55.60;;;;;;5051533;28;20525;-54
2022/03/13 05:10:42;;;;;;;18.77;11.57;;;-2.70;55.80;;;;;;5057519;28;20063;-56
2022/03/13 05:13:11;;;;;;;20.88;11.40;;;-2.80;55.80;;;;;;5070246;28;20047;-54
2022/03/13 05:15:39;;;;;;;20.95;11.35;;;-2.80;55.70;;;;;;5071244;28;20025;-59
2022/03/13 05:18:05;;;;;;;19.90;11.40;;;-2.70;56.30;;;;;;5071327;28;20353;-58
2022/03/13 05:20:33;;;;;;;16.50;11.07;;;-2.80;55.90;;;;;;5064499;28;20056;-58
2022/03/13 05:22:58;;;;;;;18.85;11.15;;;-2.80;55.70;;;;;;5049001;28;20480;-57
2022/03/13 05:25:24;;;;;;;14.45;10.25;;;-2.70;55.40;;;;;;5049967;28;20029;-58
2022/03/13 05:27:51;;;;;;;17.08;10.52;;;-2.70;55.00;;;;;;5050650;28;20037;-56
2022/03/13 05:30:20;;;;;;;20.27;11.43;;;-2.70;55.10;;;;;;5068327;28;20364;-53
2022/03/13 05:32:46;;;;;;;15.55;10.15;;;-2.70;54.70;;;;;;5070242;28;20885;-58
2022/03/13 05:35:12;;;;;;;17.75;11.10;;;-2.70;55.10;;;;;;5069970;28;20552;-56
2022/03/13 05:37:38;;;;;;;18.70;11.80;;;-2.70;55.40;;;;;;5069840;28;20483;-58
2022/03/13 05:40:06;;;;;;;17.58;11.02;;;-2.60;55.20;;;;;;5053177;28;20033;-59
2022/03/13 05:42:32;;;;;;;17.15;12.38;;;-2.60;55.30;;;;;;5050530;28;20029;-59
2022/03/13 05:44:58;;;;;;;17.40;10.85;;;-2.60;55.50;;;;;;5051036;28;20029;-59
2022/03/13 05:47:23;;;;;;;15.38;10.98;;;-2.50;55.40;;;;;;5050616;28;20025;-59
2022/03/13 05:49:49;;;;;;;21.42;11.23;;;-2.50;55.60;;;;;;5063078;28;20039;-54
2022/03/13 05:52:15;;;;;;;16.77;11.00;;;-2.50;55.70;;;;;;5069400;28;20055;-56
2022/03/13 05:54:44;;;;;;;25.17;11.30;;;-2.50;55.70;;;;;;5069447;28;20059;-59
2022/03/13 05:57:11;;;;;;;18.67;12.27;;;-2.40;55.50;;;;;;5069601;28;20020;-59
2022/03/13 05:59:39;;;;;;;18.17;11.40;;;-2.40;55.50;;;;;;5058590;28;20029;-59
2022/03/13 06:02:06;;;;;;;18.25;10.80;;;-2.30;55.10;;;;;;5049336;28;20075;-58
2022/03/13 06:04:34;;;;;;;14.93;10.00;;;-2.30;54.90;;;;;;5061439;28;20094;-58
2022/03/13 06:07:00;;;;;;;15.50;10.65;;;-2.20;54.50;;;;;;5070792;28;20017;-57
2022/03/13 06:09:25;;;;;;;15.60;10.82;;;-2.20;54.20;;;;;;5070828;28;20024;-58
2022/03/13 06:11:51;;;;;;;20.17;11.25;;;-2.10;54.40;;;;;;5070524;28;20423;-58
2022/03/13 06:14:18;;;;;;;15.45;10.30;;;-2.10;54.20;;;;;;5061106;28;20132;-57
2022/03/13 06:16:44;;;;;;;19.80;11.43;;;-2.00;54.40;;;;;;5053076;28;20111;-58
2022/03/13 06:19:09;;;;;;;30.35;11.07;;;-1.90;53.70;;;;;;5054144;28;20033;-57
2022/03/13 06:21:35;;;;;;;16.80;11.15;;;-1.90;52.90;;;;;;5054174;28;20025;-59
2022/03/13 06:24:01;;;;;;;16.00;10.75;;;-1.80;53.20;;;;;;5059213;28;20024;-58
2022/03/13 06:26:27;;;;;;;13.70;10.63;;;-1.70;52.70;;;;;;5073972;28;20029;-58
2022/03/13 06:28:52;;;;;;;15.85;10.50;;;-1.70;52.60;;;;;;5073971;28;20523;-59
2022/03/13 06:31:18;;;;;;;20.48;11.15;;;-1.60;52.50;;;;;;5074253;28;20063;-58
2022/03/13 06:33:45;;;;;;;16.92;10.10;;;-1.60;52.20;;;;;;5069414;28;20043;-59
2022/03/13 06:36:11;;;;;;;17.08;10.07;;;-1.50;52.30;;;;;;5053969;28;20292;-59
2022/03/13 06:38:37;;;;;;;16.27;10.68;;;-1.40;51.80;;;;;;5053471;28;20026;-58
2022/03/13 06:41:03;;;;;;;15.55;10.82;;;-1.40;52.10;;;;;;5053116;28;20025;-58
2022/03/13 06:43:29;;;;;;;20.33;10.85;;;-1.30;51.30;;;;;;5067751;28;20033;-57
2022/03/13 06:45:55;;;;;;;16.33;9.68;;;-1.20;50.70;;;;;;5074010;28;20077;-56
2022/03/13 06:48:21;;;;;;;16.80;9.63;;;-1.10;50.60;;;;;;5073762;28;20057;-58
2022/03/13 06:50:48;;;;;;;20.40;10.20;;;-1.10;50.10;;;;;;5073580;28;20032;-57
2022/03/13 06:53:14;;;;;;;20.67;12.05;;;-1.00;50.10;;;;;;5061134;28;20033;-58
2022/03/13 06:55:40;;;;;;;17.98;10.95;;;-0.90;49.70;;;;;;5053590;28;20033;-57
2022/03/13 06:58:06;;;;;;;18.60;10.73;;;-0.90;49.30;;;;;;5053193;28;20021;-59
2022/03/13 07:00:32;;;;;;;15.90;10.20;;;-0.80;49.10;;;;;;5056632;28;20028;-57
2022/03/13 07:02:58;;;;;;;18.27;10.80;;;-0.70;49.50;;;;;;5057123;28;20029;-58
2022/03/13 07:05:24;;;;;;;15.38;10.65;;;-0.70;48.80;;;;;;5053248;28;20017;-59
2022/03/13 07:07:54;;;;;;;18.02;11.75;;;-0.70;48.40;;;;;;5053107;28;20045;-55
2022/03/13 07:10:20;;;;;;;16.20;10.20;;;-0.60;48.40;;;;;;5053320;28;20075;-56
2022/03/13 07:12:46;;;;;;;13.02;9.95;;;-0.50;48.80;;;;;;5066379;28;20052;-58
2022/03/13 07:15:13;;;;;;;17.92;10.82;;;-0.40;48.00;;;;;;5073223;28;20035;-56
2022/03/13 07:17:43;;;;;;;17.83;11.80;;;-0.40;48.20;;;;;;5073010;28;20031;-58
2022/03/13 07:20:09;;;;;;;33.22;10.35;;;-0.30;48.10;;;;;;5073156;28;20028;-58
2022/03/13 07:22:35;;;;;;;20.15;10.63;;;-0.30;48.10;;;;;;5072066;28;20032;-57
2022/03/13 07:25:00;;;;;;;16.20;10.02;;;-0.20;47.90;;;;;;5072965;28;20020;-57
2022/03/13 07:27:29;;;;;;;15.55;9.93;;;-0.20;47.30;;;;;;5071491;28;20063;-58
2022/03/13 07:29:55;;;;;;;12.73;10.00;;;-0.10;47.10;;;;;;5072898;28;20118;-58
2022/03/13 07:32:21;;;;;;;14.25;10.02;;;0.00;48.20;;;;;;5062604;28;20029;-55
2022/03/13 07:34:47;;;;;;;15.70;10.07;;;0.00;47.80;;;;;;5052330;28;20032;-58
2022/03/13 07:37:13;;;;;;;14.75;10.70;;;0.10;47.50;;;;;;5052177;28;20048;-57
2022/03/13 07:39:39;;;;;;;15.55;11.07;;;0.10;47.10;;;;;;5052207;28;20075;-59
2022/03/13 07:42:06;;;;;;;17.33;10.15;;;0.20;47.20;;;;;;5060026;28;20021;-58
2022/03/13 07:44:31;;;;;;;16.88;10.38;;;0.30;47.40;;;;;;5057831;28;20033;-57
2022/03/13 07:46:57;;;;;;;16.77;9.75;;;0.40;47.40;;;;;;5052685;28;20066;-58
2022/03/13 07:49:23;;;;;;;16.63;10.93;;;0.50;46.80;;;;;;5052497;28;20033;-58
2022/03/13 07:51:48;;;;;;;20.70;11.65;;;0.50;47.00;;;;;;5052120;28;20067;-58
2022/03/13 07:54:15;;;;;;;16.13;10.63;;;0.60;46.80;;;;;;5062778;28;20122;-58
2022/03/13 07:56:42;;;;;;;15.63;10.98;;;0.70;46.50;;;;;;5072347;28;20032;-58
2022/03/13 07:59:07;;;;;;;20.75;10.30;;;0.80;46.20;;;;;;5072404;28;20117;-57
2022/03/13 08:01:33;;;;;;;17.65;10.27;;;0.90;46.70;;;;;;5070091;28;20068;-58
2022/03/13 08:04:01;;;;;;;14.88;10.27;;;1.00;45.90;;;;;;5052479;28;20021;-59
2022/03/13 08:06:27;;;;;;;15.73;10.48;;;1.10;46.10;;;;;;5052266;28;20013;-59
2022/03/13 08:08:54;;;;;;;21.08;9.43;;;1.20;45.70;;;;;;5052201;28;20017;-58
2022/03/13 08:11:19;;;;;;;14.25;9.75;;;1.30;46.20;;;;;;5053240;28;20204;-58
2022/03/13 08:13:45;;;;;;;20.13;11.02;;;1.40;46.00;;;;;;5051664;28;20055;-58
2022/03/13 08:16:11;;;;;;;21.02;11.82;;;1.50;46.00;;;;;;5059937;28;20024;-57
2022/03/13 08:18:36;;;;;;;18.35;12.02;;;1.60;45.30;;;;;;5071641;28;20024;-58
2022/03/13 08:21:02;;;;;;;14.77;9.40;;;1.70;45.20;;;;;;5071987;28;20016;-59
2022/03/13 08:23:28;;;;;;;15.57;10.18;;;1.90;45.40;;;;;;5072114;28;20096;-59
2022/03/13 08:25:54;;;;;;;15.68;9.73;;;2.00;44.60;;;;;;5063861;28;20029;-59
2022/03/13 08:28:19;;;;;;;15.90;10.70;;;2.00;44.70;;;;;;5069626;28;20028;-59
2022/03/13 08:30:45;;;;;;;14.20;8.98;;;2.10;43.60;;;;;;5071382;28;20028;-58
2022/03/13 08:33:11;;;;;;;23.58;10.27;;;2.30;43.30;;;;;;5071654;28;20036;-57
2022/03/13 08:35:36;;;;;;;20.33;10.77;;;2.40;43.50;;;;;;5068825;28;20056;-58
2022/03/13 08:38:02;;;;;;;18.33;10.68;;;2.50;43.60;;;;;;5050499;28;20033;-59
2022/03/13 08:40:29;;;;;;;15.25;10.35;;;2.70;43.10;;;;;;5051431;28;20033;-58
2022/03/13 08:42:56;;;;;;;14.50;10.13;;;2.70;43.20;;;;;;5051595;28;20055;-59
2022/03/13 08:45:22;;;;;;;14.55;9.75;;;2.90;43.60;;;;;;5051471;28;20365;-60
2022/03/13 08:47:48;;;;;;;16.85;11.00;;;2.80;43.20;;;;;;5070985;28;20644;-58
2022/03/13 08:50:16;;;;;;;12.75;9.63;;;3.10;44.10;;;;;;5071321;28;20087;-59
2022/03/13 08:52:43;;;;;;;16.27;11.18;;;3.20;43.50;;;;;;5070794;28;20066;-58
2022/03/13 08:55:13;;;;;;;14.68;10.68;;;3.30;42.50;;;;;;5070788;28;20031;-57
2022/03/13 08:57:43;;;;;;;17.25;11.00;;;3.20;42.20;;;;;;5052274;28;20164;-59
2022/03/13 09:00:10;;;;;;;19.40;10.77;;;3.20;42.80;;;;;;5051328;28;20104;-57
2022/03/13 09:02:37;;;;;;;20.23;10.93;;;3.30;42.40;;;;;;5050629;28;20100;-63
2022/03/13 09:05:03;;;;;;;14.93;10.13;;;3.40;42.30;;;;;;5050402;28;20373;-58
2022/03/13 09:07:29;;;;;;;14.40;10.52;;;3.70;42.70;;;;;;5067098;28;20111;-59
2022/03/13 09:09:54;;;;;;;16.55;9.40;;;3.80;42.60;;;;;;5071206;28;20093;-59
2022/03/13 09:12:20;;;;;;;14.70;10.40;;;4.00;42.70;;;;;;5071051;28;20042;-59
2022/03/13 09:14:46;;;;;;;15.65;11.05;;;4.20;42.50;;;;;;5070646;28;20056;-58
2022/03/13 09:17:12;;;;;;;16.48;9.95;;;4.20;41.00;;;;;;5056090;28;20028;-58
2022/03/13 09:19:38;;;;;;;17.27;10.10;;;4.30;41.70;;;;;;5050704;28;20607;-60
2022/03/13 09:22:04;;;;;;;16.73;10.60;;;4.50;40.90;;;;;;5050969;28;20056;-59
2022/03/13 09:24:30;;;;;;;14.13;10.93;;;4.60;41.40;;;;;;5050796;28;20025;-58
2022/03/13 09:26:55;;;;;;;15.80;10.70;;;4.50;41.50;;;;;;5062124;28;20047;-59
2022/03/13 09:29:21;;;;;;;51.45;26.92;;;4.70;41.30;;;;;;5070471;28;20028;-58
2022/03/13 09:31:47;;;;;;;18.10;12.27;;;5.10;41.50;;;;;;5070610;28;20043;-59
2022/03/13 09:34:13;;;;;;;19.63;11.95;;;5.30;41.70;;;;;;5070786;28;20387;-57
2022/03/13 09:36:42;;;;;;;17.65;10.93;;;5.50;40.40;;;;;;5061408;28;20039;-59
2022/03/13 09:39:08;;;;;;;17.75;10.82;;;5.60;40.50;;;;;;5050642;28;20074;-60
2022/03/13 09:41:35;;;;;;;14.70;11.13;;;5.70;40.80;;;;;;5050589;28;20096;-57
2022/03/13 09:44:00;;;;;;;22.13;15.15;;;5.60;39.80;;;;;;5049992;28;20366;-59
2022/03/13 09:46:26;;;;;;;24.25;11.55;;;5.80;40.80;;;;;;5057246;28;20032;-59
2022/03/13 09:48:53;;;;;;;16.75;11.43;;;6.10;40.30;;;;;;5070235;28;20029;-68
2022/03/13 09:51:19;;;;;;;22.73;10.65;;;6.40;40.20;;;;;;5068638;28;20021;-59
2022/03/13 09:53:46;;;;;;;27.25;11.70;;;6.30;39.00;;;;;;5062571;28;20460;-58
2022/03/13 09:56:11;;;;;;;17.48;11.25;;;6.30;40.10;;;;;;5074227;28;20032;-59
2022/03/13 09:58:37;;;;;;;17.88;9.85;;;6.50;40.10;;;;;;5061172;28;20017;-59
2022/03/13 10:01:03;;;;;;;15.80;11.10;;;6.70;38.90;;;;;;5053738;28;20025;-59
2022/03/13 10:03:28;;;;;;;15.80;10.48;;;6.60;38.90;;;;;;5053539;28;20059;-59
2022/03/13 10:05:55;;;;;;;18.27;11.10;;;7.10;40.00;;;;;;5053904;28;20025;-59
2022/03/13 10:08:30;;;;;;;13.88;10.10;;;7.30;39.40;;;;;;5054207;28;20063;-57
2022/03/13 10:10:57;;;;;;;17.77;10.77;;;7.60;39.00;;;;;;5066896;28;20024;-59
2022/03/13 10:13:46;;;;;;;16.73;9.88;;;7.90;38.80;;;;;;5073802;28;20691;-60
2022/03/13 10:16:19;;;;;;;16.60;10.13;;;7.90;38.10;;;;;;5060817;28;20112;-59
2022/03/13 10:18:45;;;;;;;19.80;10.45;;;8.10;37.70;;;;;;5074134;28;20056;-59
2022/03/13 10:21:13;;;;;;;15.45;10.23;;;8.40;37.40;;;;;;5065260;28;20037;-58
2022/03/13 10:23:40;;;;;;;14.23;10.35;;;8.20;36.70;;;;;;5055488;28;20380;-58
2022/03/13 10:26:07;;;;;;;39.33;21.88;;;8.40;37.50;;;;;;5074103;28;20452;-59
2022/03/13 10:28:34;;;;;;;22.88;12.80;;;8.60;37.00;;;;;;5073967;28;20402;-58
2022/03/13 10:30:59;;;;;;;16.33;10.57;;;8.70;36.90;;;;;;5073878;28;20051;-58
2022/03/13 10:33:45;;;;;;;16.55;11.70;;;8.70;36.60;;;;;;5064728;28;20075;-59
2022/03/13 10:36:14;;;;;;;17.25;11.10;;;8.80;36.70;;;;;;5079457;28;20380;-58
2022/03/13 10:38:41;;;;;;;19.52;10.80;;;9.30;36.70;;;;;;5072936;28;20394;-59
2022/03/13 10:41:12;;;;;;;14.10;10.27;;;9.40;34.90;;;;;;5073323;28;20117;-58
2022/03/13 10:43:53;;;;;;;18.75;10.38;;;9.70;35.70;;;;;;5066051;28;20507;-59
2022/03/13 10:46:26;;;;;;;13.18;10.35;;;9.90;35.80;;;;;;5065040;28;20539;-58
2022/03/13 10:48:53;;;;;;;14.43;9.87;;;10.20;34.80;;;;;;5073293;28;20021;-58
2022/03/13 10:51:31;;;;;;;13.18;9.05;;;10.70;33.00;;;;;;5053925;28;20059;-58
2022/03/13 10:53:56;;;;;;;15.40;10.05;;;11.60;33.20;;;;;;5053590;28;20492;-50
2022/03/13 10:56:22;;;;;;;12.77;9.55;;;12.40;30.30;;;;;;5053375;28;20044;-59
2022/03/13 10:58:48;;;;;;;13.32;9.70;;;13.60;29.50;;;;;;5052914;28;20028;-59
2022/03/13 11:01:19;;;;;;;17.42;9.60;;;14.00;29.00;;;;;;5053219;28;20483;-60
2022/03/13 11:03:50;;;;;;;14.25;9.63;;;14.30;28.70;;;;;;5054421;28;20477;-59
2022/03/13 11:06:17;;;;;;;13.10;10.50;;;15.20;28.60;;;;;;5053419;28;20051;-59
2022/03/13 11:08:43;;;;;;;16.45;9.07;;;15.30;27.10;;;;;;5054376;28;20116;-59
2022/03/13 11:11:18;;;;;;;13.93;9.52;;;15.90;27.30;;;;;;5030534;28;20631;-60
2022/03/13 11:13:52;;;;;;;11.73;9.38;;;15.90;27.30;;;;;;5025637;28;20041;-60
2022/03/13 11:16:25;;;;;;;19.95;10.20;;;17.40;26.70;;;;;;5025092;28;20477;-60
2022/03/13 11:18:54;;;;;;;14.63;9.95;;;17.90;26.90;;;;;;5025575;28;20098;-60
2022/03/13 11:21:21;;;;;;;14.02;9.85;;;17.40;26.50;;;;;;5026397;28;20035;-60
2022/03/13 11:23:47;;;;;;;12.48;9.32;;;17.40;26.40;;;;;;5022076;28;20056;-60
2022/03/13 11:26:23;;;;;;;19.52;11.18;;;17.50;26.30;;;;;;5024707;28;20111;-60
2022/03/13 11:28:49;;;;;;;20.42;9.55;;;17.50;26.50;;;;;;5018907;28;20040;-60
2022/03/13 11:31:30;;;;;;;15.35;9.43;;;18.40;25.30;;;;;;5026760;28;20471;-60
2022/03/13 11:34:16;;;;;;;11.52;9.18;;;17.80;25.30;;;;;;5020422;28;20160;-60
2022/03/13 11:36:44;;;;;;;13.00;8.93;;;18.40;25.10;;;;;;5024520;28;20063;-60
2022/03/13 11:39:13;;;;;;;15.43;9.35;;;19.50;25.60;;;;;;5023397;28;20040;-60
2022/03/13 11:41:43;;;;;;;15.02;9.57;;;18.00;25.30;;;;;;5024680;28;20033;-61
2022/03/13 11:44:18;;;;;;;10.68;8.00;;;18.50;26.50;;;;;;5026544;28;20041;-61
2022/03/13 11:46:45;;;;;;;10.02;8.07;;;20.00;25.30;;;;;;5017637;28;20037;-60
2022/03/13 11:49:37;;;;;;;10.43;8.90;;;20.00;24.90;;;;;;5038614;28;20119;-60
2022/03/13 11:52:17;;;;;;;13.85;8.55;;;18.70;24.40;;;;;;5023747;28;20033;-60
2022/03/13 11:54:50;;;;;;;15.93;9.27;;;19.20;25.30;;;;;;5023941;28;20032;-60
2022/03/13 11:57:20;;;;;;;14.63;9.35;;;19.50;25.00;;;;;;5022571;28;20033;-61
2022/03/13 12:00:06;;;;;;;11.07;8.35;;;19.50;25.90;;;;;;5023658;28;20348;-61
2022/03/13 12:02:41;;;;;;;10.80;8.63;;;19.90;24.40;;;;;;5019657;28;20055;-61
2022/03/13 12:05:28;;;;;;;12.45;9.55;;;20.30;24.50;;;;;;5020390;28;20094;-61
2022/03/13 12:08:08;;;;;;;11.93;8.25;;;19.60;24.70;;;;;;5023919;28;20021;-60
2022/03/13 12:10:41;;;;;;;12.05;8.40;;;20.50;24.30;;;;;;5024270;28;20032;-60
2022/03/13 12:13:12;;;;;;;11.23;8.38;;;20.30;24.70;;;;;;5019312;28;20037;-61
2022/03/13 12:15:40;;;;;;;12.90;8.02;;;19.40;24.20;;;;;;5022218;28;20704;-61
2022/03/13 12:18:21;;;;;;;11.35;8.45;;;19.90;24.50;;;;;;5021333;28;20048;-61
2022/03/13 12:20:52;;;;;;;9.93;8.13;;;20.90;24.30;;;;;;5016870;28;20036;-61
2022/03/13 12:23:29;;;;;;;9.38;7.47;;;21.30;23.70;;;;;;5039498;28;20043;-61
2022/03/13 12:26:16;;;;;;;13.27;8.32;;;20.90;24.10;;;;;;5018151;28;20159;-61
2022/03/13 12:28:42;;;;;;;10.57;9.07;;;20.70;23.60;;;;;;5021796;28;20021;-61
2022/03/13 12:31:07;;;;;;;12.93;8.55;;;21.00;24.20;;;;;;5025938;28;20042;-61
2022/03/13 12:33:37;;;;;;;17.85;7.82;;;21.60;24.60;;;;;;5026531;28;20041;-61
2022/03/13 12:36:03;;;;;;;10.13;7.32;;;21.10;24.00;;;;;;5034086;28;20236;-61
2022/03/13 12:38:32;;;;;;;12.73;8.50;;;22.00;23.90;;;;;;5018063;28;20067;-61
2022/03/13 12:41:00;;;;;;;15.10;8.23;;;21.40;24.10;;;;;;5021144;28;20071;-61